Time;durP1;ratioP1;P1;durP2;ratioP2;P2;SDS_P1;SDS_P2;PMS_P1;PMS_P2;Temp;Humidity;BMP_temperature;BMP_pressure;BME280_temperature;BME280_humidity;BME280_pressure;Samples;Min_cycle;Max_cycle;Signal;HPM_P1;HPM_P2
2021/03/31 00:01:57;;;;;;;7.07;3.58;;;9.10;99.90;;;;;;5035085;28;20040;-75
2021/03/31 00:04:22;;;;;;;8.60;3.63;;;9.20;99.90;;;;;;5035147;28;20473;-75
2021/03/31 00:06:48;;;;;;;5.60;3.20;;;9.30;99.90;;;;;;5035125;28;20101;-75
2021/03/31 00:09:15;;;;;;;6.65;3.22;;;9.30;99.90;;;;;;5035065;28;20036;-75
2021/03/31 00:11:41;;;;;;;6.18;3.30;;;9.20;99.90;;;;;;5034748;28;20025;-75
2021/03/31 00:14:07;;;;;;;6.20;2.63;;;9.30;99.90;;;;;;5034582;28;20036;-75
2021/03/31 00:16:33;;;;;;;4.63;3.25;;;9.20;99.90;;;;;;5034358;28;20044;-75
2021/03/31 00:18:58;;;;;;;4.25;2.13;;;9.20;99.90;;;;;;5034809;28;20029;-75
2021/03/31 00:21:24;;;;;;;6.78;2.70;;;9.00;99.30;;;;;;5034580;28;20029;-75
2021/03/31 00:23:50;;;;;;;2.85;2.00;;;8.80;99.90;;;;;;5033655;28;20037;-75
2021/03/31 00:26:16;;;;;;;7.78;3.38;;;8.80;99.90;;;;;;5034826;28;20516;-75
2021/03/31 00:28:42;;;;;;;6.38;2.80;;;8.80;99.90;;;;;;5033948;28;20508;-75
2021/03/31 00:31:09;;;;;;;7.10;3.20;;;8.70;99.90;;;;;;5032928;28;20045;-75
2021/03/31 00:33:34;;;;;;;8.95;2.00;;;8.70;99.90;;;;;;5034521;28;20021;-75
2021/03/31 00:36:00;;;;;;;3.13;2.50;;;8.60;99.90;;;;;;5034430;28;20522;-75
2021/03/31 00:38:26;;;;;;;4.50;2.35;;;8.70;99.90;;;;;;5031772;28;20035;-75
2021/03/31 00:40:54;;;;;;;6.35;2.70;;;8.70;99.90;;;;;;5025217;28;20108;-75
2021/03/31 00:43:21;;;;;;;5.40;2.50;;;8.80;99.90;;;;;;5028408;28;20519;-75
2021/03/31 00:45:46;;;;;;;3.88;2.30;;;8.70;99.90;;;;;;5023333;28;20057;-75
2021/03/31 00:48:16;;;;;;;8.93;2.83;;;8.70;99.90;;;;;;5014311;28;20057;-76
2021/03/31 00:50:56;;;;;;;4.30;3.00;;;8.60;99.90;;;;;;5027690;28;20140;-75
2021/03/31 00:53:29;;;;;;;4.93;2.40;;;8.50;99.90;;;;;;5033251;28;20112;-75
2021/03/31 00:55:56;;;;;;;5.95;2.30;;;8.40;99.90;;;;;;5034009;28;20033;-75
2021/03/31 00:58:23;;;;;;;6.55;2.90;;;8.30;99.90;;;;;;5030618;28;20025;-75
2021/03/31 01:00:49;;;;;;;7.55;2.95;;;8.40;99.90;;;;;;5017932;28;20026;-76
2021/03/31 01:03:15;;;;;;;5.43;2.40;;;8.30;99.90;;;;;;5032681;28;20108;-75
2021/03/31 01:05:41;;;;;;;5.68;2.35;;;8.40;99.90;;;;;;5032118;28;20113;-75
2021/03/31 01:08:07;;;;;;;6.63;3.58;;;8.60;99.90;;;;;;5033265;28;20512;-76
2021/03/31 01:10:40;;;;;;;4.47;3.10;;;8.60;99.90;;;;;;5033339;28;20040;-75
2021/03/31 01:13:45;;;;;;;4.05;2.60;;;8.60;99.90;;;;;;5033520;28;20033;-75
2021/03/31 01:16:16;;;;;;;4.35;2.33;;;8.50;99.90;;;;;;5033252;28;20033;-75
2021/03/31 01:19:23;;;;;;;6.88;3.35;;;8.40;99.90;;;;;;5033204;28;20044;-75
2021/03/31 01:21:52;;;;;;;2.78;2.38;;;8.40;99.90;;;;;;4975557;28;20177;-75
2021/03/31 01:24:55;;;;;;;9.10;3.03;;;8.30;99.90;;;;;;4992042;28;20038;-75
2021/03/31 01:28:03;;;;;;;4.72;2.45;;;8.30;99.90;;;;;;4990866;28;20056;-75
2021/03/31 01:30:51;;;;;;;5.20;3.03;;;8.30;99.90;;;;;;4974611;28;20141;-75
2021/03/31 01:33:20;;;;;;;3.30;2.75;;;8.30;99.90;;;;;;4990786;28;20042;-75
2021/03/31 01:35:46;;;;;;;4.90;2.60;;;8.30;99.90;;;;;;4991767;28;20145;-75
2021/03/31 01:38:14;;;;;;;4.95;2.83;;;8.20;99.90;;;;;;4990776;28;20034;-75
2021/03/31 01:40:48;;;;;;;7.88;2.25;;;8.20;99.90;;;;;;4991406;28;20414;-75
2021/03/31 01:43:17;;;;;;;5.53;2.60;;;8.10;99.90;;;;;;4990294;28;20035;-75
2021/03/31 01:45:48;;;;;;;7.90;2.95;;;8.10;99.90;;;;;;4991359;28;20593;-75
2021/03/31 01:48:18;;;;;;;4.90;2.35;;;8.10;99.90;;;;;;4991326;28;20048;-76
2021/03/31 01:50:48;;;;;;;6.75;2.70;;;8.00;99.90;;;;;;4991308;28;20046;-75
2021/03/31 01:53:14;;;;;;;6.22;2.50;;;7.90;99.90;;;;;;4991443;28;20022;-75
2021/03/31 01:55:41;;;;;;;6.03;2.70;;;7.90;99.90;;;;;;4990940;28;20035;-75
2021/03/31 01:58:08;;;;;;;7.95;2.40;;;7.90;99.90;;;;;;4995636;28;20374;-75
2021/03/31 02:00:35;;;;;;;3.22;1.88;;;7.70;99.90;;;;;;5014901;28;20044;-75
2021/03/31 02:03:01;;;;;;;5.15;1.85;;;7.30;99.90;;;;;;5027961;28;20031;-75
2021/03/31 02:05:29;;;;;;;6.28;2.17;;;7.00;99.90;;;;;;5032457;28;20056;-75
2021/03/31 02:07:55;;;;;;;5.63;2.60;;;6.90;99.90;;;;;;5032526;28;20029;-75
2021/03/31 02:10:23;;;;;;;5.03;2.50;;;7.10;99.90;;;;;;5021352;28;20030;-75
2021/03/31 02:12:50;;;;;;;4.53;2.53;;;7.20;99.90;;;;;;5027954;28;20025;-75
2021/03/31 02:15:21;;;;;;;5.88;2.47;;;7.30;99.90;;;;;;5027971;28;20053;-75
2021/03/31 02:17:49;;;;;;;7.57;2.60;;;7.30;99.90;;;;;;5020018;28;20036;-75
2021/03/31 02:20:16;;;;;;;5.32;2.28;;;7.50;99.90;;;;;;5032289;28;20034;-75
2021/03/31 02:22:45;;;;;;;4.15;2.75;;;7.60;99.90;;;;;;5032463;28;20563;-76
2021/03/31 02:25:12;;;;;;;5.40;2.20;;;7.40;99.90;;;;;;5031245;28;20562;-75
2021/03/31 02:27:38;;;;;;;4.05;2.00;;;7.30;99.90;;;;;;5017538;28;20099;-75
2021/03/31 02:30:10;;;;;;;5.68;2.60;;;7.20;99.90;;;;;;5026322;28;20084;-75
2021/03/31 02:32:37;;;;;;;2.35;1.95;;;7.20;99.90;;;;;;5032065;28;20055;-75
2021/03/31 02:35:05;;;;;;;5.65;2.78;;;7.10;99.90;;;;;;5032044;28;20025;-76
2021/03/31 02:37:31;;;;;;;5.97;3.08;;;7.10;99.90;;;;;;5031708;28;20473;-75
2021/03/31 02:39:58;;;;;;;4.85;2.60;;;7.00;99.90;;;;;;5031660;28;20500;-76
2021/03/31 02:42:26;;;;;;;6.55;2.72;;;7.00;99.90;;;;;;5030778;28;20524;-75
2021/03/31 02:44:56;;;;;;;8.48;3.08;;;7.00;99.90;;;;;;5031948;28;20474;-75
2021/03/31 02:47:29;;;;;;;5.80;3.13;;;7.10;99.90;;;;;;5031920;28;20036;-75
2021/03/31 02:50:00;;;;;;;4.97;2.67;;;7.00;99.90;;;;;;5027340;28;20544;-75
2021/03/31 02:52:27;;;;;;;4.43;2.92;;;7.10;99.90;;;;;;5032491;28;20037;-75
2021/03/31 02:54:54;;;;;;;6.22;3.35;;;7.30;99.90;;;;;;5031607;28;20231;-75
2021/03/31 02:57:21;;;;;;;5.03;2.72;;;7.40;99.90;;;;;;5031836;28;20029;-75
2021/03/31 02:59:49;;;;;;;8.98;2.63;;;7.50;99.90;;;;;;5020197;28;20092;-75
2021/03/31 03:02:19;;;;;;;5.90;2.60;;;7.60;99.90;;;;;;5016398;28;20022;-75
2021/03/31 03:04:49;;;;;;;;;;;7.50;99.90;;;;;;5032114;28;20022;-75
2021/03/31 03:07:15;;;;;;;8.25;2.42;;;7.40;99.90;;;;;;5010982;28;19911;-76
2021/03/31 03:09:43;;;;;;;8.43;2.55;;;7.20;99.90;;;;;;5030598;28;20038;-76
2021/03/31 03:12:12;;;;;;;6.18;2.15;;;7.10;99.90;;;;;;5035208;28;20109;-76
2021/03/31 03:14:47;;;;;;;8.02;3.00;;;7.00;99.90;;;;;;5035937;28;20523;-75
2021/03/31 03:17:13;;;;;;;7.47;3.10;;;6.90;99.90;;;;;;5035868;28;20424;-75
2021/03/31 03:19:38;;;;;;;5.22;2.80;;;7.00;99.90;;;;;;5035438;28;20059;-76
2021/03/31 03:22:06;;;;;;;6.55;2.65;;;7.20;99.90;;;;;;5034826;28;20056;-75
2021/03/31 03:24:33;;;;;;;5.35;2.78;;;7.40;99.90;;;;;;5019508;28;20018;-75
2021/03/31 03:27:00;;;;;;;5.55;2.40;;;7.30;99.90;;;;;;5020177;28;20082;-75
2021/03/31 03:29:26;;;;;;;4.40;1.98;;;7.10;99.90;;;;;;5034892;28;20083;-76
2021/03/31 03:31:53;;;;;;;4.20;2.20;;;7.00;99.90;;;;;;5033553;28;20509;-75
2021/03/31 03:34:20;;;;;;;4.75;2.70;;;6.90;99.90;;;;;;5035144;28;20036;-75
2021/03/31 03:36:46;;;;;;;6.47;3.20;;;6.90;99.90;;;;;;5035334;28;20198;-75
2021/03/31 03:39:13;;;;;;;5.82;2.10;;;6.90;99.90;;;;;;5034819;28;20516;-75
2021/03/31 03:41:38;;;;;;;9.77;3.40;;;6.90;99.90;;;;;;5034442;28;20040;-75
2021/03/31 03:44:05;;;;;;;7.05;4.35;;;6.90;99.90;;;;;;5035422;28;20029;-75
2021/03/31 03:46:34;;;;;;;7.45;2.83;;;7.10;99.90;;;;;;5035607;28;20516;-75
2021/03/31 03:49:01;;;;;;;3.00;2.20;;;7.00;99.90;;;;;;5034741;28;20148;-76
2021/03/31 03:51:29;;;;;;;8.55;2.70;;;7.00;99.90;;;;;;5031169;28;20056;-76
2021/03/31 03:53:56;;;;;;;8.55;2.53;;;6.90;99.90;;;;;;5016205;28;20022;-75
2021/03/31 03:56:22;;;;;;;4.25;3.30;;;6.70;99.90;;;;;;5034952;28;20095;-75
2021/03/31 03:58:48;;;;;;;6.63;2.50;;;6.70;99.90;;;;;;5034751;28;20030;-75
2021/03/31 04:01:14;;;;;;;7.50;2.60;;;6.70;99.90;;;;;;5034916;28;20036;-75
2021/03/31 04:03:40;;;;;;;5.82;2.95;;;6.60;99.90;;;;;;5031093;28;20030;-75
2021/03/31 04:06:08;;;;;;;9.68;2.72;;;6.70;99.90;;;;;;5019464;28;20108;-75
2021/03/31 04:08:35;;;;;;;8.35;2.35;;;6.70;99.90;;;;;;5034472;28;20025;-75
2021/03/31 04:11:02;;;;;;;3.95;2.20;;;6.90;99.90;;;;;;5034355;28;20037;-75
2021/03/31 04:13:33;;;;;;;5.50;2.28;;;6.90;99.90;;;;;;5034596;28;20040;-75
2021/03/31 04:16:08;;;;;;;5.30;3.33;;;6.80;99.90;;;;;;5034279;28;20456;-75
2021/03/31 04:18:37;;;;;;;6.72;3.10;;;6.90;99.90;;;;;;5034907;28;20097;-75
2021/03/31 04:21:04;;;;;;;3.03;2.50;;;7.00;99.90;;;;;;5033923;28;20092;-75
2021/03/31 04:23:29;;;;;;;8.25;2.58;;;7.00;99.90;;;;;;5034469;28;20036;-75
2021/03/31 04:25:58;;;;;;;6.40;1.95;;;6.80;99.90;;;;;;5033602;28;20033;-75
2021/03/31 04:28:27;;;;;;;6.38;2.75;;;6.60;99.90;;;;;;5034491;28;20029;-75
2021/03/31 04:30:54;;;;;;;5.13;2.65;;;6.60;99.90;;;;;;5032896;28;20452;-75
2021/03/31 04:33:22;;;;;;;4.43;2.60;;;6.60;99.90;;;;;;5033516;28;20513;-75
2021/03/31 04:35:48;;;;;;;6.60;3.75;;;6.70;99.90;;;;;;5033488;28;20026;-75
2021/03/31 04:38:14;;;;;;;5.10;2.97;;;6.70;99.90;;;;;;5033623;28;20080;-76
2021/03/31 04:40:55;;;;;;;7.38;3.80;;;6.70;99.90;;;;;;5033878;28;20033;-75
2021/03/31 04:43:23;;;;;;;12.90;3.90;;;6.70;99.90;;;;;;5034362;28;20397;-75
2021/03/31 04:45:49;;;;;;;14.05;5.43;;;6.70;99.90;;;;;;5034473;28;20033;-75
2021/03/31 04:48:15;;;;;;;8.32;4.75;;;6.80;99.90;;;;;;5034315;28;20032;-76
2021/03/31 04:50:40;;;;;;;9.45;4.53;;;6.70;99.90;;;;;;5033379;28;20041;-75
2021/03/31 04:53:06;;;;;;;9.30;3.55;;;6.60;99.90;;;;;;5033568;28;20076;-75
2021/03/31 04:55:33;;;;;;;11.98;4.03;;;6.40;99.90;;;;;;5025966;28;20030;-75
2021/03/31 04:57:59;;;;;;;8.00;3.58;;;6.40;99.90;;;;;;5024419;28;20109;-75
2021/03/31 05:00:25;;;;;;;9.35;3.03;;;6.30;99.90;;;;;;5022225;28;20026;-75
2021/03/31 05:02:50;;;;;;;3.97;2.50;;;6.30;99.90;;;;;;5029929;28;20060;-76
2021/03/31 05:05:16;;;;;;;5.20;3.17;;;5.90;99.90;;;;;;5024377;28;20026;-75
2021/03/31 05:07:42;;;;;;;6.40;2.83;;;5.80;99.90;;;;;;5029907;28;20112;-75
2021/03/31 05:10:08;;;;;;;9.20;2.50;;;5.90;99.90;;;;;;5025248;28;20452;-75
2021/03/31 05:12:34;;;;;;;7.68;2.80;;;6.10;99.90;;;;;;5028639;28;20029;-75
2021/03/31 05:15:00;;;;;;;9.60;2.35;;;6.10;99.90;;;;;;5021958;28;20036;-75
2021/03/31 05:17:25;;;;;;;6.32;2.10;;;6.10;99.90;;;;;;5027437;28;20025;-75
2021/03/31 05:19:51;;;;;;;34.42;5.47;;;6.10;99.90;;;;;;5020881;28;20034;-75
2021/03/31 05:22:17;;;;;;;5.63;2.30;;;6.10;99.90;;;;;;5027122;28;20029;-75
2021/03/31 05:24:43;;;;;;;6.80;2.50;;;6.10;99.90;;;;;;5030790;28;20722;-76
2021/03/31 05:27:08;;;;;;;5.38;2.45;;;6.10;99.90;;;;;;5032779;28;20144;-75
2021/03/31 05:29:34;;;;;;;9.48;2.28;;;6.00;99.90;;;;;;5022586;28;20056;-75
2021/03/31 05:32:00;;;;;;;9.05;2.80;;;5.90;99.90;;;;;;5029255;28;20034;-75
2021/03/31 05:34:26;;;;;;;9.35;2.70;;;5.90;99.90;;;;;;5031909;28;20104;-75
2021/03/31 05:36:52;;;;;;;11.38;3.88;;;5.90;99.90;;;;;;5032736;28;20033;-76
2021/03/31 05:39:17;;;;;;;11.43;2.83;;;6.10;99.90;;;;;;5026096;28;20033;-75
2021/03/31 05:41:44;;;;;;;12.15;3.53;;;6.20;99.90;;;;;;5016785;28;20165;-75
2021/03/31 05:44:10;;;;;;;17.38;3.30;;;6.10;99.90;;;;;;5032630;28;20535;-76
2021/03/31 05:46:41;;;;;;;14.27;2.83;;;6.00;99.90;;;;;;5016120;28;20022;-75
2021/03/31 05:49:07;;;;;;;11.90;3.10;;;5.90;99.90;;;;;;5026662;28;20116;-75
2021/03/31 05:51:33;;;;;;;5.55;2.38;;;6.00;99.90;;;;;;5014539;28;20108;-75
2021/03/31 05:53:59;;;;;;;4.75;2.63;;;6.10;99.90;;;;;;5032965;28;20101;-75
2021/03/31 05:56:25;;;;;;;9.45;2.95;;;6.20;99.90;;;;;;5032908;28;20097;-75
2021/03/31 05:58:51;;;;;;;8.13;2.60;;;6.30;99.90;;;;;;5032124;28;20060;-75
2021/03/31 06:01:18;;;;;;;6.32;2.83;;;6.30;99.90;;;;;;5030435;28;20033;-75
2021/03/31 06:03:44;;;;;;;5.88;3.38;;;6.20;99.90;;;;;;5030378;28;20526;-75
2021/03/31 06:06:10;;;;;;;5.75;3.28;;;6.30;99.90;;;;;;5032787;28;20104;-75
2021/03/31 06:08:36;;;;;;;13.68;3.30;;;6.40;99.90;;;;;;5022353;28;20138;-74
2021/03/31 06:11:02;;;;;;;10.57;4.18;;;6.40;99.90;;;;;;5012935;28;20033;-74
2021/03/31 06:13:47;;;;;;;11.30;3.80;;;6.40;99.90;;;;;;5012661;28;20026;-74
2021/03/31 06:16:47;;;;;;;7.55;5.38;;;6.40;99.90;;;;;;5012660;28;20486;-74
2021/03/31 06:19:20;;;;;;;12.65;5.13;;;6.50;99.90;;;;;;4971743;28;20122;-75
2021/03/31 06:24:46;;;;;;;9.07;5.65;;;6.70;99.90;;;;;;4971736;28;20527;-74
2021/03/31 06:27:13;;;;;;;9.35;5.38;;;6.70;99.90;;;;;;4971715;28;20031;-74
2021/03/31 06:30:03;;;;;;;9.90;4.30;;;6.80;99.90;;;;;;4971446;28;20038;-74
2021/03/31 06:32:40;;;;;;;14.55;5.25;;;6.70;99.90;;;;;;4971550;28;20039;-74
2021/03/31 06:35:16;;;;;;;10.30;4.30;;;6.80;99.90;;;;;;4971656;28;20454;-74
2021/03/31 06:37:42;;;;;;;10.93;4.55;;;7.00;99.90;;;;;;4971552;28;20042;-74
2021/03/31 06:40:56;;;;;;;12.43;4.50;;;7.10;99.90;;;;;;4955326;28;20026;-74
2021/03/31 06:44:12;;;;;;;8.00;2.85;;;7.30;99.90;;;;;;4970894;28;20038;-74
2021/03/31 06:46:15;;;;;;;6.72;2.95;;;7.60;99.90;;;;;;4963358;28;20121;-74
2021/03/31 06:48:47;;;;;;;6.43;2.85;;;7.80;99.90;;;;;;4977815;28;20034;-74
2021/03/31 06:51:30;;;;;;;24.10;4.22;;;7.90;99.90;;;;;;4977769;28;20030;-74
2021/03/31 06:53:56;;;;;;;9.80;2.97;;;8.30;99.90;;;;;;4984403;28;20049;-73
2021/03/31 06:56:29;;;;;;;5.93;3.10;;;8.30;99.90;;;;;;5019084;28;20026;-74
2021/03/31 06:59:02;;;;;;;11.73;3.28;;;7.90;99.90;;;;;;5018939;28;20050;-75
2021/03/31 07:01:32;;;;;;;6.47;3.65;;;7.80;99.90;;;;;;5018842;28;20113;-73
2021/03/31 07:04:04;;;;;;;7.93;3.53;;;8.00;99.90;;;;;;5017680;28;20026;-73
2021/03/31 07:06:31;;;;;;;7.95;5.25;;;8.00;99.90;;;;;;5019167;28;20432;-74
2021/03/31 07:08:56;;;;;;;9.40;3.80;;;8.20;99.90;;;;;;5019004;28;20033;-73
2021/03/31 07:11:40;;;;;;;13.60;4.13;;;8.20;99.90;;;;;;5019057;28;20505;-73
2021/03/31 07:14:08;;;;;;;10.27;3.80;;;8.20;99.90;;;;;;5017232;28;20057;-73
2021/03/31 07:16:34;;;;;;;26.55;4.72;;;8.20;99.90;;;;;;5017818;28;20057;-74
2021/03/31 07:19:00;;;;;;;9.23;4.15;;;8.40;99.90;;;;;;5018920;28;20054;-74
2021/03/31 07:21:26;;;;;;;6.57;3.80;;;8.60;99.90;;;;;;5018857;28;20034;-74
2021/03/31 07:23:52;;;;;;;5.72;3.60;;;8.70;99.90;;;;;;5018903;28;20049;-74
2021/03/31 07:26:22;;;;;;;7.03;2.58;;;8.70;99.90;;;;;;5018779;28;20030;-74
2021/03/31 07:28:52;;;;;;;4.93;2.45;;;8.90;99.90;;;;;;5018677;28;20026;-74
2021/03/31 07:31:22;;;;;;;9.73;3.42;;;9.10;99.90;;;;;;5017245;28;20069;-74
2021/03/31 07:34:02;;;;;;;5.40;2.92;;;9.30;99.90;;;;;;5018838;28;20026;-74
2021/03/31 07:36:29;;;;;;;5.70;2.80;;;9.70;99.90;;;;;;5018745;28;20026;-74
2021/03/31 07:38:56;;;;;;;8.38;3.25;;;9.90;99.40;;;;;;5018797;28;20025;-74
2021/03/31 07:41:22;;;;;;;7.60;3.55;;;10.20;99.90;;;;;;5018828;28;20505;-74
2021/03/31 07:43:49;;;;;;;8.02;3.28;;;10.40;99.60;;;;;;5018489;28;20026;-74
2021/03/31 07:46:23;;;;;;;12.48;3.50;;;10.40;99.90;;;;;;5018510;28;20386;-74
2021/03/31 07:48:49;;;;;;;6.97;2.55;;;10.40;99.90;;;;;;5018706;28;20025;-74
2021/03/31 07:51:18;;;;;;;20.48;3.95;;;10.40;99.90;;;;;;5018614;28;20026;-74
2021/03/31 07:53:45;;;;;;;7.78;3.08;;;10.40;99.90;;;;;;5018725;28;20022;-74
2021/03/31 07:56:24;;;;;;;11.48;3.85;;;10.60;99.90;;;;;;5016295;28;20034;-74
2021/03/31 07:59:02;;;;;;;5.05;3.05;;;10.70;99.50;;;;;;5015321;28;20072;-74
2021/03/31 08:01:50;;;;;;;7.93;3.30;;;10.80;99.90;;;;;;5015439;28;20450;-74
2021/03/31 08:04:18;;;;;;;8.18;2.78;;;10.90;99.90;;;;;;5015161;28;20021;-74
2021/03/31 08:06:45;;;;;;;7.03;2.83;;;11.20;99.90;;;;;;5015493;28;20037;-74
2021/03/31 08:09:21;;;;;;;12.80;4.05;;;11.40;98.70;;;;;;5014110;28;20433;-74
2021/03/31 08:11:50;;;;;;;18.25;3.33;;;11.50;99.20;;;;;;5013936;28;20038;-74
2021/03/31 08:14:19;;;;;;;12.35;3.70;;;11.90;98.20;;;;;;5013587;28;20408;-74
2021/03/31 08:16:48;;;;;;;15.63;3.00;;;12.10;96.50;;;;;;5015160;28;20367;-74
2021/03/31 08:19:17;;;;;;;12.90;3.40;;;12.40;95.70;;;;;;5015018;28;20030;-74
2021/03/31 08:21:45;;;;;;;12.60;2.72;;;12.60;95.40;;;;;;5015203;28;20029;-74
2021/03/31 08:24:12;;;;;;;11.02;3.63;;;13.10;94.30;;;;;;5015069;28;20034;-74
2021/03/31 08:26:41;;;;;;;15.27;3.83;;;13.40;93.60;;;;;;5014700;28;20030;-74
2021/03/31 08:29:19;;;;;;;9.98;3.55;;;13.60;93.20;;;;;;5014853;28;20026;-74
2021/03/31 08:31:54;;;;;;;23.90;3.45;;;14.10;91.30;;;;;;5014773;28;20553;-74
2021/03/31 08:34:20;;;;;;;9.35;3.70;;;14.00;89.70;;;;;;5014750;28;20482;-74
2021/03/31 08:36:46;;;;;;;11.88;4.07;;;14.20;85.80;;;;;;5014843;28;20025;-74
2021/03/31 08:39:13;;;;;;;10.43;3.85;;;14.20;89.20;;;;;;5014904;28;20026;-74
2021/03/31 08:41:41;;;;;;;11.00;3.17;;;14.60;88.90;;;;;;5014488;28;20170;-74
2021/03/31 08:44:10;;;;;;;12.90;3.85;;;15.00;86.30;;;;;;5014725;28;20393;-74
2021/03/31 08:46:36;;;;;;;8.87;3.13;;;15.50;85.20;;;;;;5014719;28;20058;-74
2021/03/31 08:49:02;;;;;;;10.93;2.90;;;15.80;81.80;;;;;;5014587;28;20437;-74
2021/03/31 08:51:28;;;;;;;10.70;3.17;;;16.00;83.60;;;;;;5013128;28;20030;-74
2021/03/31 08:54:01;;;;;;;10.00;3.30;;;16.40;80.80;;;;;;5014591;28;20038;-75
2021/03/31 08:56:26;;;;;;;9.90;2.88;;;17.40;76.40;;;;;;5014011;28;20026;-74
2021/03/31 08:58:56;;;;;;;20.15;3.53;;;17.60;74.10;;;;;;5014453;28;20029;-74
2021/03/31 09:01:31;;;;;;;11.85;3.67;;;18.20;72.10;;;;;;5014242;28;20026;-74
2021/03/31 09:04:13;;;;;;;7.85;3.67;;;18.70;70.80;;;;;;5014330;28;20038;-75
2021/03/31 09:06:39;;;;;;;45.58;7.15;;;19.50;67.20;;;;;;5014240;28;20505;-75
2021/03/31 09:09:05;;;;;;;13.95;3.95;;;20.50;63.30;;;;;;5014141;28;20080;-75
2021/03/31 09:11:31;;;;;;;10.48;3.13;;;21.30;60.80;;;;;;5013586;28;20065;-75
2021/03/31 09:14:18;;;;;;;13.90;3.92;;;22.70;58.70;;;;;;5012827;28;20034;-75
2021/03/31 09:16:55;;;;;;;9.90;4.22;;;24.00;54.20;;;;;;5014067;28;20481;-75
2021/03/31 09:19:22;;;;;;;12.68;4.07;;;25.10;50.70;;;;;;5013955;28;20033;-75
2021/03/31 09:21:48;;;;;;;9.85;3.50;;;25.10;51.10;;;;;;5014033;28;20026;-75
2021/03/31 09:24:16;;;;;;;16.65;5.60;;;26.40;50.50;;;;;;5014046;28;20026;-75
2021/03/31 09:27:06;;;;;;;12.30;4.15;;;27.10;47.50;;;;;;5013574;28;20426;-75
2021/03/31 09:29:33;;;;;;;14.32;3.92;;;27.40;46.90;;;;;;5013695;28;20030;-75
2021/03/31 09:32:01;;;;;;;11.35;3.58;;;27.40;44.10;;;;;;5013604;28;20045;-75
2021/03/31 09:34:27;;;;;;;12.00;3.50;;;27.60;44.40;;;;;;5013691;28;20433;-75
2021/03/31 09:37:17;;;;;;;8.13;4.10;;;28.30;44.40;;;;;;5013684;28;20030;-75
2021/03/31 09:39:53;;;;;;;9.38;4.90;;;28.60;43.10;;;;;;5013531;28;20037;-75
2021/03/31 09:42:32;;;;;;;154.05;12.20;;;28.70;42.10;;;;;;5013640;28;20069;-76
2021/03/31 09:44:59;;;;;;;22.48;4.80;;;28.40;41.90;;;;;;5013450;28;20041;-75
2021/03/31 09:47:29;;;;;;;11.80;4.20;;;28.40;42.10;;;;;;5013523;28;20129;-75
2021/03/31 09:49:55;;;;;;;;;;;28.80;40.50;;;;;;5013997;28;20029;-75
2021/03/31 09:52:29;;;;;;;8.90;3.65;;;29.30;40.70;;;;;;5013397;28;20343;-76
2021/03/31 09:54:59;;;;;;;11.95;3.78;;;28.80;39.60;;;;;;5013076;28;20029;-75
2021/03/31 09:57:26;;;;;;;11.43;4.47;;;29.40;41.50;;;;;;5013157;28;20486;-75
2021/03/31 09:59:52;;;;;;;17.52;4.93;;;28.60;40.90;;;;;;5013376;28;20088;-75
2021/03/31 10:02:18;;;;;;;12.93;4.00;;;28.30;40.80;;;;;;5013222;28;20506;-75
2021/03/31 10:04:45;;;;;;;12.73;3.78;;;29.70;41.70;;;;;;5013110;28;20053;-76
2021/03/31 10:07:14;;;;;;;13.82;3.95;;;29.60;40.40;;;;;;5013260;28;20030;-76
2021/03/31 10:09:43;;;;;;;7.05;3.50;;;29.30;39.40;;;;;;5012818;28;20038;-75
2021/03/31 10:12:11;;;;;;;17.92;5.47;;;30.40;39.10;;;;;;5013014;28;20478;-76
2021/03/31 10:14:48;;;;;;;15.43;5.13;;;30.50;38.40;;;;;;5013025;28;20109;-76
2021/03/31 10:17:18;;;;;;;7.68;4.18;;;30.20;38.60;;;;;;5012994;28;20108;-76
2021/03/31 10:19:44;;;;;;;7.03;3.38;;;30.60;39.00;;;;;;5012553;28;20084;-76
2021/03/31 10:22:10;;;;;;;8.55;3.45;;;30.60;38.90;;;;;;5012975;28;20029;-76
2021/03/31 10:24:44;;;;;;;30.77;4.47;;;30.70;39.10;;;;;;5012515;28;20030;-76
2021/03/31 10:27:13;;;;;;;8.70;3.17;;;31.50;38.50;;;;;;5012943;28;20053;-76
2021/03/31 10:29:53;;;;;;;8.50;3.75;;;31.00;38.60;;;;;;5012673;28;20025;-76
2021/03/31 10:32:20;;;;;;;;;;;30.70;38.40;;;;;;5013352;28;20080;-76
2021/03/31 10:34:55;;;;;;;7.95;4.03;;;31.50;37.40;;;;;;5012683;28;19912;-73
2021/03/31 10:37:37;;;;;;;9.52;3.50;;;31.90;37.60;;;;;;5012461;28;20026;-73
2021/03/31 10:51:32;;;;;;;9.48;4.28;;;32.80;36.80;;;;;;5012257;28;20026;-74
2021/03/31 10:54:04;;;;;;;50.28;6.35;;;32.90;37.30;;;;;;5011321;28;20037;-73
2021/03/31 10:56:31;;;;;;;8.80;4.07;;;31.80;38.10;;;;;;5011516;28;20042;-75
2021/03/31 10:58:57;;;;;;;8.40;4.22;;;32.50;38.20;;;;;;5028654;28;20025;-75
2021/03/31 11:01:23;;;;;;;9.95;3.60;;;32.50;36.10;;;;;;5014916;28;20030;-75
2021/03/31 11:03:49;;;;;;;8.15;3.30;;;32.30;35.80;;;;;;5012871;28;20026;-74
2021/03/31 11:06:14;;;;;;;7.38;3.47;;;33.00;36.20;;;;;;5021150;28;20404;-75
2021/03/31 11:08:40;;;;;;;6.35;3.65;;;33.20;37.20;;;;;;5019370;28;20026;-75
2021/03/31 11:11:09;;;;;;;11.55;5.10;;;33.00;35.00;;;;;;5012833;28;20037;-75
2021/03/31 11:13:35;;;;;;;14.18;3.60;;;32.90;35.10;;;;;;5027722;28;20113;-75
2021/03/31 11:16:06;;;;;;;9.50;3.88;;;32.90;36.70;;;;;;5023482;28;20552;-76
2021/03/31 11:26:22;;;;;;;8.85;3.65;;;35.00;36.60;;;;;;5027122;28;20040;-75
2021/03/31 11:28:48;;;;;;;11.85;3.60;;;34.50;34.50;;;;;;5031968;28;20025;-75
2021/03/31 11:31:14;;;;;;;9.90;3.72;;;34.30;34.50;;;;;;5031645;28;20180;-75
2021/03/31 11:33:39;;;;;;;6.90;3.88;;;34.30;35.80;;;;;;5035842;28;20068;-75
2021/03/31 11:36:06;;;;;;;50.78;46.28;;;33.90;35.00;;;;;;5035164;28;20902;-75
2021/03/31 11:38:32;;;;;;;6.85;4.05;;;34.50;34.30;;;;;;5035719;28;20037;-75
2021/03/31 11:40:58;;;;;;;7.22;3.58;;;33.50;35.40;;;;;;5035387;28;20478;-75
2021/03/31 11:43:23;;;;;;;5.25;3.72;;;33.60;35.30;;;;;;5035626;28;20104;-75
2021/03/31 11:45:49;;;;;;;6.80;3.72;;;33.90;33.80;;;;;;5035462;28;20572;-75
2021/03/31 11:48:15;;;;;;;7.57;4.40;;;33.90;36.10;;;;;;5035526;28;20105;-75
2021/03/31 11:50:42;;;;;;;9.70;4.38;;;33.70;35.70;;;;;;5034974;28;20033;-75
2021/03/31 11:53:09;;;;;;;8.35;4.57;;;34.80;36.30;;;;;;5035415;28;20071;-75
2021/03/31 11:55:35;;;;;;;9.55;3.28;;;35.90;34.80;;;;;;5031987;28;20517;-75
2021/03/31 11:58:01;;;;;;;8.50;3.70;;;34.90;33.70;;;;;;5015441;28;20022;-75
2021/03/31 12:00:27;;;;;;;9.30;4.07;;;34.60;35.40;;;;;;5015457;28;20026;-75
2021/03/31 12:02:53;;;;;;;12.35;4.47;;;35.80;35.80;;;;;;5015402;28;20077;-75
2021/03/31 12:05:19;;;;;;;6.18;4.30;;;35.20;33.90;;;;;;5015060;28;20030;-75
2021/03/31 12:07:45;;;;;;;8.48;3.92;;;34.20;34.50;;;;;;5015522;28;20057;-75
2021/03/31 12:10:11;;;;;;;5.30;3.50;;;34.30;36.60;;;;;;5015012;28;20498;-75
2021/03/31 12:12:38;;;;;;;7.35;3.60;;;35.10;35.70;;;;;;5015277;28;20097;-74
2021/03/31 12:15:12;;;;;;;7.25;3.85;;;35.00;34.60;;;;;;5013960;28;20030;-75
2021/03/31 12:17:39;;;;;;;6.22;4.55;;;34.60;35.50;;;;;;5015184;28;20030;-75
2021/03/31 12:20:08;;;;;;;10.88;4.28;;;34.40;35.20;;;;;;5014691;28;20474;-75
2021/03/31 12:22:34;;;;;;;7.30;4.00;;;34.40;35.80;;;;;;5015255;28;20026;-75
2021/03/31 12:25:00;;;;;;;6.03;3.50;;;33.80;35.10;;;;;;5014945;28;20032;-76
2021/03/31 12:27:28;;;;;;;9.32;3.67;;;33.00;37.20;;;;;;5015052;28;20030;-76
2021/03/31 12:29:53;;;;;;;6.25;3.80;;;33.20;36.90;;;;;;5014800;28;20041;-75
2021/03/31 12:32:20;;;;;;;9.75;3.58;;;33.00;35.50;;;;;;5014712;28;20077;-75
2021/03/31 12:34:46;;;;;;;14.25;4.05;;;33.30;37.10;;;;;;5014654;28;20058;-74
2021/03/31 12:37:12;;;;;;;11.30;4.50;;;34.00;35.30;;;;;;5014721;28;20025;-77
2021/03/31 12:39:38;;;;;;;7.60;4.03;;;35.20;35.70;;;;;;5013487;28;20105;-77
2021/03/31 12:42:05;;;;;;;5.50;3.33;;;35.20;34.60;;;;;;5014235;28;20507;-77
2021/03/31 12:44:31;;;;;;;9.77;3.83;;;34.60;35.10;;;;;;5014750;28;20026;-77
2021/03/31 12:46:57;;;;;;;8.45;4.43;;;34.20;36.10;;;;;;5014592;28;20040;-77
2021/03/31 12:49:22;;;;;;;9.65;3.85;;;33.60;36.00;;;;;;5014051;28;20025;-77
2021/03/31 12:51:54;;;;;;;7.78;3.47;;;33.70;37.40;;;;;;5014601;28;20519;-77
2021/03/31 12:54:27;;;;;;;10.50;3.85;;;33.40;36.60;;;;;;5014499;28;20381;-77
2021/03/31 12:56:54;;;;;;;7.95;3.67;;;32.90;36.10;;;;;;5014366;28;20466;-77
2021/03/31 12:59:19;;;;;;;5.75;3.45;;;33.20;37.10;;;;;;5014202;28;20482;-77
2021/03/31 13:01:45;;;;;;;7.53;3.40;;;33.10;37.40;;;;;;5014414;28;20038;-77
2021/03/31 13:04:13;;;;;;;9.18;3.35;;;33.70;38.80;;;;;;5013920;28;20398;-77
2021/03/31 13:06:39;;;;;;;10.82;4.10;;;33.30;35.80;;;;;;5014291;28;20435;-77
2021/03/31 13:09:05;;;;;;;11.18;3.50;;;33.20;36.60;;;;;;5014264;28;20057;-77
2021/03/31 13:11:31;;;;;;;13.10;4.70;;;33.10;37.20;;;;;;5014073;28;20117;-77
2021/03/31 13:32:28;;;;;;;12.13;4.30;;;30.90;39.90;;;;;;4993747;28;20038;-77
2021/03/31 13:35:02;;;;;;;9.75;3.92;;;30.90;40.00;;;;;;4994073;28;20113;-77
2021/03/31 13:37:32;;;;;;;7.07;3.67;;;31.90;40.30;;;;;;4994096;28;20042;-77
2021/03/31 13:39:59;;;;;;;7.88;3.17;;;30.80;40.40;;;;;;4993919;28;20022;-77
2021/03/31 13:42:25;;;;;;;8.07;3.13;;;31.10;39.80;;;;;;4994000;28;20030;-77